sensor_id;sensor_type;location;lat;lon;timestamp;pressure;altitude;pressure_sealevel;temperature;humidity
20656;BME280;10487;53.320;8.672;2022-10-16T00:02:17;100667.94;;;11.75;61.76
20656;BME280;10487;53.320;8.672;2022-10-16T00:05:19;100665.41;;;11.74;61.55
20656;BME280;10487;53.320;8.672;2022-10-16T00:08:20;100666.34;;;11.73;61.79
20656;BME280;10487;53.320;8.672;2022-10-16T00:11:24;100666.59;;;11.70;61.73
20656;BME280;10487;53.320;8.672;2022-10-16T00:14:26;100676.47;;;11.69;61.69
20656;BME280;10487;53.320;8.672;2022-10-16T00:17:29;100675.59;;;11.69;61.84
20656;BME280;10487;53.320;8.672;2022-10-16T00:20:34;100684.72;;;11.66;61.59
20656;BME280;10487;53.320;8.672;2022-10-16T00:23:36;100682.13;;;11.65;61.37
20656;BME280;10487;53.320;8.672;2022-10-16T00:26:39;100683.22;;;11.62;61.76
20656;BME280;10487;53.320;8.672;2022-10-16T00:29:40;100685.19;;;11.60;61.33
20656;BME280;10487;53.320;8.672;2022-10-16T00:32:42;100687.25;;;11.57;61.73
20656;BME280;10487;53.320;8.672;2022-10-16T00:35:43;100681.16;;;11.55;61.72
20656;BME280;10487;53.320;8.672;2022-10-16T00:38:46;100686.78;;;11.52;61.41
20656;BME280;10487;53.320;8.672;2022-10-16T00:41:48;100687.84;;;11.49;61.72
20656;BME280;10487;53.320;8.672;2022-10-16T00:44:57;100688.91;;;11.47;61.66
20656;BME280;10487;53.320;8.672;2022-10-16T00:47:59;100697.03;;;11.45;61.47
20656;BME280;10487;53.320;8.672;2022-10-16T00:51:01;100691.97;;;11.42;61.47
20656;BME280;10487;53.320;8.672;2022-10-16T00:54:04;100700.06;;;11.41;61.74
20656;BME280;10487;53.320;8.672;2022-10-16T00:57:08;100695.81;;;11.38;61.72
20656;BME280;10487;53.320;8.672;2022-10-16T01:00:13;100695.22;;;11.35;61.71
20656;BME280;10487;53.320;8.672;2022-10-16T01:03:31;100690.97;;;11.32;61.61
20656;BME280;10487;53.320;8.672;2022-10-16T01:13:38;100694.09;;;11.26;61.39
20656;BME280;10487;53.320;8.672;2022-10-16T01:16:53;100688.03;;;11.24;61.60
20656;BME280;10487;53.320;8.672;2022-10-16T01:23:22;100688.50;;;11.18;61.46
20656;BME280;10487;53.320;8.672;2022-10-16T01:33:23;100689.94;;;11.11;61.65
20656;BME280;10487;53.320;8.672;2022-10-16T01:36:31;100694.31;;;11.12;61.60
20656;BME280;10487;53.320;8.672;2022-10-16T01:39:38;100695.41;;;11.09;61.75
20656;BME280;10487;53.320;8.672;2022-10-16T01:42:45;100694.69;;;11.07;61.65
20656;BME280;10487;53.320;8.672;2022-10-16T01:45:49;100700.03;;;11.07;61.65
20656;BME280;10487;53.320;8.672;2022-10-16T01:48:51;100692.09;;;11.06;61.58
20656;BME280;10487;53.320;8.672;2022-10-16T01:51:56;100691.38;;;11.04;61.59
20656;BME280;10487;53.320;8.672;2022-10-16T01:55:06;100696.94;;;11.01;61.71
20656;BME280;10487;53.320;8.672;2022-10-16T01:58:10;100689.91;;;11.00;61.53
20656;BME280;10487;53.320;8.672;2022-10-16T02:01:15;100691.84;;;10.98;61.53
20656;BME280;10487;53.320;8.672;2022-10-16T02:04:26;100695.50;;;10.97;61.52
20656;BME280;10487;53.320;8.672;2022-10-16T02:07:28;100696.56;;;10.94;61.61
20656;BME280;10487;53.320;8.672;2022-10-16T02:10:30;100700.19;;;10.93;61.58
20656;BME280;10487;53.320;8.672;2022-10-16T02:13:41;100701.19;;;10.92;61.69
20656;BME280;10487;53.320;8.672;2022-10-16T02:16:46;100700.31;;;10.92;61.83
20656;BME280;10487;53.320;8.672;2022-10-16T02:19:49;100712.69;;;10.93;61.68
20656;BME280;10487;53.320;8.672;2022-10-16T02:22:53;100707.34;;;10.93;61.53
20656;BME280;10487;53.320;8.672;2022-10-16T02:25:58;100709.28;;;10.91;61.46
20656;BME280;10487;53.320;8.672;2022-10-16T02:29:03;100708.44;;;10.90;61.46
20656;BME280;10487;53.320;8.672;2022-10-16T02:32:08;100703.22;;;10.89;61.51
20656;BME280;10487;53.320;8.672;2022-10-16T02:35:12;100706.84;;;10.88;61.50
20656;BME280;10487;53.320;8.672;2022-10-16T02:38:15;100701.75;;;10.85;61.58
20656;BME280;10487;53.320;8.672;2022-10-16T02:41:18;100699.91;;;10.85;61.56
20656;BME280;10487;53.320;8.672;2022-10-16T02:44:20;100692.03;;;10.84;61.43
20656;BME280;10487;53.320;8.672;2022-10-16T02:47:21;100695.66;;;10.83;61.51
20656;BME280;10487;53.320;8.672;2022-10-16T02:50:23;100687.66;;;10.83;61.55
20656;BME280;10487;53.320;8.672;2022-10-16T02:53:26;100695.66;;;10.83;61.64
20656;BME280;10487;53.320;8.672;2022-10-16T02:56:27;100696.66;;;10.82;61.62
20656;BME280;10487;53.320;8.672;2022-10-16T02:59:29;100696.66;;;10.82;61.65
20656;BME280;10487;53.320;8.672;2022-10-16T03:02:31;100684.25;;;10.81;61.64
20656;BME280;10487;53.320;8.672;2022-10-16T03:05:32;100692.25;;;10.81;61.58
20656;BME280;10487;53.320;8.672;2022-10-16T03:08:34;100694.94;;;10.81;61.69
20656;BME280;10487;53.320;8.672;2022-10-16T03:11:35;100696.78;;;10.80;61.53
20656;BME280;10487;53.320;8.672;2022-10-16T03:14:37;100694.09;;;10.80;61.73
20656;BME280;10487;53.320;8.672;2022-10-16T03:17:39;100697.59;;;10.81;61.68
20656;BME280;10487;53.320;8.672;2022-10-16T03:20:41;100699.44;;;10.80;61.66
20656;BME280;10487;53.320;8.672;2022-10-16T03:23:43;100698.59;;;10.80;61.28
20656;BME280;10487;53.320;8.672;2022-10-16T03:26:45;100699.53;;;10.79;61.53
20656;BME280;10487;53.320;8.672;2022-10-16T03:29:46;100694.31;;;10.77;61.48
20656;BME280;10487;53.320;8.672;2022-10-16T03:32:48;100701.47;;;10.77;61.46
20656;BME280;10487;53.320;8.672;2022-10-16T03:35:54;100705.97;;;10.76;61.49
20656;BME280;10487;53.320;8.672;2022-10-16T03:38:55;100710.44;;;10.76;61.50
20656;BME280;10487;53.320;8.672;2022-10-16T03:41:57;100713.97;;;10.76;61.52
20656;BME280;10487;53.320;8.672;2022-10-16T03:44:58;100710.56;;;10.74;61.60
20656;BME280;10487;53.320;8.672;2022-10-16T03:48:00;100712.50;;;10.72;61.68
20656;BME280;10487;53.320;8.672;2022-10-16T03:51:02;100711.66;;;10.72;61.48
20656;BME280;10487;53.320;8.672;2022-10-16T03:54:03;100712.50;;;10.72;61.58
20656;BME280;10487;53.320;8.672;2022-10-16T03:57:05;100710.69;;;10.73;61.63
20656;BME280;10487;53.320;8.672;2022-10-16T04:00:07;100712.38;;;10.74;61.49
20656;BME280;10487;53.320;8.672;2022-10-16T04:03:09;100714.94;;;10.75;61.51
20656;BME280;10487;53.320;8.672;2022-10-16T04:06:10;100706.09;;;10.75;61.54
20656;BME280;10487;53.320;8.672;2022-10-16T04:09:12;100713.09;;;10.76;61.56
20656;BME280;10487;53.320;8.672;2022-10-16T04:12:13;100721.97;;;10.76;61.47
20656;BME280;10487;53.320;8.672;2022-10-16T04:15:15;100739.56;;;10.79;61.59
20656;BME280;10487;53.320;8.672;2022-10-16T04:18:16;100749.28;;;10.80;61.50
20656;BME280;10487;53.320;8.672;2022-10-16T04:21:18;100751.84;;;10.81;61.49
20656;BME280;10487;53.320;8.672;2022-10-16T04:24:19;100748.09;;;10.84;61.60
20656;BME280;10487;53.320;8.672;2022-10-16T04:27:21;100746.16;;;10.86;61.64
20656;BME280;10487;53.320;8.672;2022-10-16T04:30:23;100755.00;;;10.86;61.81
20656;BME280;10487;53.320;8.672;2022-10-16T04:33:24;100751.28;;;10.89;61.45
20656;BME280;10487;53.320;8.672;2022-10-16T04:36:26;100759.06;;;10.92;61.33
20656;BME280;10487;53.320;8.672;2022-10-16T04:39:29;100748.38;;;10.92;61.49
20656;BME280;10487;53.320;8.672;2022-10-16T04:42:31;100750.91;;;10.93;61.65
20656;BME280;10487;53.320;8.672;2022-10-16T04:45:32;100748.97;;;10.95;61.70
20656;BME280;10487;53.320;8.672;2022-10-16T04:48:34;100760.41;;;10.97;61.43
20656;BME280;10487;53.320;8.672;2022-10-16T04:51:35;100759.44;;;10.98;61.63
20656;BME280;10487;53.320;8.672;2022-10-16T04:54:37;100757.63;;;10.99;61.50
20656;BME280;10487;53.320;8.672;2022-10-16T04:57:40;100754.81;;;11.00;61.54
20656;BME280;10487;53.320;8.672;2022-10-16T05:00:41;100757.41;;;11.02;61.49
20656;BME280;10487;53.320;8.672;2022-10-16T05:03:43;100759.84;;;11.05;61.43
20656;BME280;10487;53.320;8.672;2022-10-16T05:06:45;100766.88;;;11.06;61.53
20656;BME280;10487;53.320;8.672;2022-10-16T05:09:46;100773.94;;;11.07;61.69
20656;BME280;10487;53.320;8.672;2022-10-16T05:12:48;100773.81;;;11.08;61.48
20656;BME280;10487;53.320;8.672;2022-10-16T05:15:49;100777.31;;;11.09;61.49
20656;BME280;10487;53.320;8.672;2022-10-16T05:18:51;100775.38;;;11.11;61.66
20656;BME280;10487;53.320;8.672;2022-10-16T05:22:04;100781.59;;;11.11;61.45
20656;BME280;10487;53.320;8.672;2022-10-16T05:25:06;100778.91;;;11.11;61.35
20656;BME280;10487;53.320;8.672;2022-10-16T05:28:08;100778.19;;;11.09;61.63
20656;BME280;10487;53.320;8.672;2022-10-16T05:31:09;100787.06;;;11.10;61.48
20656;BME280;10487;53.320;8.672;2022-10-16T05:34:11;100780.72;;;11.11;61.56
20656;BME280;10487;53.320;8.672;2022-10-16T05:37:13;100782.44;;;11.12;61.41
20656;BME280;10487;53.320;8.672;2022-10-16T05:40:15;100789.59;;;11.11;61.50
20656;BME280;10487;53.320;8.672;2022-10-16T05:43:18;100785.13;;;11.12;61.43
20656;BME280;10487;53.320;8.672;2022-10-16T05:46:20;100786.78;;;11.13;61.47
20656;BME280;10487;53.320;8.672;2022-10-16T05:49:22;100802.81;;;11.13;61.62
20656;BME280;10487;53.320;8.672;2022-10-16T05:52:23;100786.78;;;11.13;61.52
20656;BME280;10487;53.320;8.672;2022-10-16T05:55:25;100795.53;;;11.15;61.66
20656;BME280;10487;53.320;8.672;2022-10-16T05:58:35;100797.25;;;11.16;61.63
20656;BME280;10487;53.320;8.672;2022-10-16T06:01:37;100798.97;;;11.17;61.55
20656;BME280;10487;53.320;8.672;2022-10-16T06:04:38;100805.13;;;11.17;61.47
20656;BME280;10487;53.320;8.672;2022-10-16T06:07:40;100804.31;;;11.17;61.53
20656;BME280;10487;53.320;8.672;2022-10-16T06:10:42;100802.59;;;11.16;61.81
20656;BME280;10487;53.320;8.672;2022-10-16T06:13:45;100815.00;;;11.17;61.62
20656;BME280;10487;53.320;8.672;2022-10-16T06:16:50;100807.94;;;11.16;61.53
20656;BME280;10487;53.320;8.672;2022-10-16T06:19:51;100807.81;;;11.17;61.48
20656;BME280;10487;53.320;8.672;2022-10-16T06:22:53;100815.81;;;11.17;61.66
20656;BME280;10487;53.320;8.672;2022-10-16T06:26:04;100823.75;;;11.19;61.42
20656;BME280;10487;53.320;8.672;2022-10-16T06:29:05;100827.38;;;11.18;61.73
20656;BME280;10487;53.320;8.672;2022-10-16T06:32:07;100830.16;;;11.16;61.72
20656;BME280;10487;53.320;8.672;2022-10-16T06:35:09;100833.69;;;11.17;61.70
20656;BME280;10487;53.320;8.672;2022-10-16T06:38:10;100842.53;;;11.17;61.94
20656;BME280;10487;53.320;8.672;2022-10-16T06:41:14;100844.38;;;11.17;61.69
20656;BME280;10487;53.320;8.672;2022-10-16T06:44:17;100851.41;;;11.18;61.77
20656;BME280;10487;53.320;8.672;2022-10-16T06:47:18;100865.50;;;11.20;61.59
20656;BME280;10487;53.320;8.672;2022-10-16T06:50:20;100859.19;;;11.21;61.66
20656;BME280;10487;53.320;8.672;2022-10-16T06:53:21;100866.25;;;11.22;61.87
20656;BME280;10487;53.320;8.672;2022-10-16T06:56:27;100873.06;;;11.26;61.91
20656;BME280;10487;53.320;8.672;2022-10-16T06:59:29;100880.00;;;11.29;61.75
20656;BME280;10487;53.320;8.672;2022-10-16T07:02:30;100878.91;;;11.31;61.57
20656;BME280;10487;53.320;8.672;2022-10-16T07:05:37;100888.38;;;11.35;61.83
20656;BME280;10487;53.320;8.672;2022-10-16T07:08:41;100885.41;;;11.40;61.82
20656;BME280;10487;53.320;8.672;2022-10-16T07:11:43;100891.13;;;11.46;61.86
20656;BME280;10487;53.320;8.672;2022-10-16T07:14:44;100904.13;;;11.51;61.59
20656;BME280;10487;53.320;8.672;2022-10-16T07:17:46;100905.34;;;11.70;61.93
20656;BME280;10487;53.320;8.672;2022-10-16T07:20:48;100905.75;;;11.77;61.64
20656;BME280;10487;53.320;8.672;2022-10-16T07:23:50;100908.16;;;11.80;61.75
20656;BME280;10487;53.320;8.672;2022-10-16T07:26:52;100923.13;;;11.82;61.66
20656;BME280;10487;53.320;8.672;2022-10-16T07:29:54;100923.25;;;11.81;61.54
20656;BME280;10487;53.320;8.672;2022-10-16T07:32:55;100925.91;;;11.81;61.48
20656;BME280;10487;53.320;8.672;2022-10-16T07:35:57;100922.38;;;11.80;61.63
20656;BME280;10487;53.320;8.672;2022-10-16T07:38:59;100916.09;;;11.81;61.61
20656;BME280;10487;53.320;8.672;2022-10-16T07:42:00;100922.38;;;11.80;61.77
20656;BME280;10487;53.320;8.672;2022-10-16T07:45:02;100933.06;;;11.80;61.58
20656;BME280;10487;53.320;8.672;2022-10-16T07:48:04;100938.28;;;11.82;61.68
20656;BME280;10487;53.320;8.672;2022-10-16T07:51:06;100940.13;;;11.81;61.60
20656;BME280;10487;53.320;8.672;2022-10-16T07:54:09;100936.47;;;11.82;61.66
20656;BME280;10487;53.320;8.672;2022-10-16T07:57:11;100941.72;;;11.84;61.75
20656;BME280;10487;53.320;8.672;2022-10-16T08:00:13;100946.09;;;11.85;61.80
20656;BME280;10487;53.320;8.672;2022-10-16T08:03:15;100949.50;;;11.87;61.51
20656;BME280;10487;53.320;8.672;2022-10-16T08:06:17;100958.50;;;11.86;61.51
20656;BME280;10487;53.320;8.672;2022-10-16T08:09:25;100965.53;;;11.87;61.51
20656;BME280;10487;53.320;8.672;2022-10-16T08:12:27;100970.78;;;11.89;61.45
20656;BME280;10487;53.320;8.672;2022-10-16T08:15:28;100968.13;;;11.89;61.74
20656;BME280;10487;53.320;8.672;2022-10-16T08:18:30;100975.16;;;11.90;61.56
20656;BME280;10487;53.320;8.672;2022-10-16T08:21:31;100977.72;;;11.91;61.56
20656;BME280;10487;53.320;8.672;2022-10-16T08:24:33;100989.28;;;11.92;61.72
20656;BME280;10487;53.320;8.672;2022-10-16T08:27:36;100998.25;;;11.91;61.70
20656;BME280;10487;53.320;8.672;2022-10-16T08:30:37;101008.81;;;11.92;61.76
20656;BME280;10487;53.320;8.672;2022-10-16T08:33:41;101013.22;;;11.93;61.60
20656;BME280;10487;53.320;8.672;2022-10-16T08:36:43;101006.91;;;11.94;61.46
20656;BME280;10487;53.320;8.672;2022-10-16T08:39:44;101007.66;;;11.96;61.69
20656;BME280;10487;53.320;8.672;2022-10-16T08:49:17;101017.06;;;12.13;61.66
20656;BME280;10487;53.320;8.672;2022-10-16T08:52:19;101021.69;;;12.22;61.45
20656;BME280;10487;53.320;8.672;2022-10-16T08:55:50;101011.91;;;12.33;61.82
20656;BME280;10487;53.320;8.672;2022-10-16T08:58:53;101023.59;;;12.43;61.69
20656;BME280;10487;53.320;8.672;2022-10-16T09:02:01;101021.09;;;12.53;61.62
20656;BME280;10487;53.320;8.672;2022-10-16T09:11:59;101033.66;;;12.75;61.43
20656;BME280;10487;53.320;8.672;2022-10-16T09:15:35;101027.72;;;12.82;61.53
20656;BME280;10487;53.320;8.672;2022-10-16T09:18:42;101041.59;;;12.87;61.49
20656;BME280;10487;53.320;8.672;2022-10-16T09:21:46;101030.41;;;12.93;61.27
20656;BME280;10487;53.320;8.672;2022-10-16T09:24:49;101025.53;;;12.98;61.27
20656;BME280;10487;53.320;8.672;2022-10-16T09:27:52;101035.03;;;13.02;61.41
20656;BME280;10487;53.320;8.672;2022-10-16T09:30:54;101037.34;;;13.07;61.46
20656;BME280;10487;53.320;8.672;2022-10-16T09:34:01;101049.41;;;13.13;60.98
20656;BME280;10487;53.320;8.672;2022-10-16T09:37:13;101046.34;;;13.17;61.11
20656;BME280;10487;53.320;8.672;2022-10-16T09:40:33;101048.91;;;13.30;61.06
20656;BME280;10487;53.320;8.672;2022-10-16T09:43:54;101057.66;;;13.43;61.32
20656;BME280;10487;53.320;8.672;2022-10-16T09:47:11;101061.44;;;13.51;61.05
20656;BME280;10487;53.320;8.672;2022-10-16T09:50:40;101054.75;;;13.57;60.91
20656;BME280;10487;53.320;8.672;2022-10-16T09:53:46;101063.75;;;13.67;61.04
20656;BME280;10487;53.320;8.672;2022-10-16T09:56:48;101069.44;;;13.85;60.84
20656;BME280;10487;53.320;8.672;2022-10-16T09:59:57;101077.78;;;14.02;60.70
20656;BME280;10487;53.320;8.672;2022-10-16T10:02:59;101092.00;;;14.14;60.77
20656;BME280;10487;53.320;8.672;2022-10-16T10:06:14;101106.84;;;14.29;60.51
20656;BME280;10487;53.320;8.672;2022-10-16T10:12:24;101100.03;;;14.57;60.26
20656;BME280;10487;53.320;8.672;2022-10-16T10:15:32;101113.69;;;14.65;59.97
20656;BME280;10487;53.320;8.672;2022-10-16T10:18:34;101110.47;;;14.71;60.19
20656;BME280;10487;53.320;8.672;2022-10-16T10:21:38;101108.38;;;14.74;60.03
20656;BME280;10487;53.320;8.672;2022-10-16T10:24:39;101114.91;;;14.81;60.21
20656;BME280;10487;53.320;8.672;2022-10-16T10:27:57;101127.69;;;14.89;59.92
20656;BME280;10487;53.320;8.672;2022-10-16T10:41:27;101146.56;;;14.98;59.93
20656;BME280;10487;53.320;8.672;2022-10-16T10:51:19;101140.88;;;15.22;59.64
20656;BME280;10487;53.320;8.672;2022-10-16T10:57:56;101145.63;;;15.30;59.48
20656;BME280;10487;53.320;8.672;2022-10-16T11:01:14;101152.63;;;15.42;59.57
20656;BME280;10487;53.320;8.672;2022-10-16T11:07:41;101159.78;;;15.62;59.34
20656;BME280;10487;53.320;8.672;2022-10-16T11:10:56;101164.94;;;15.75;59.30
20656;BME280;10487;53.320;8.672;2022-10-16T11:14:18;101156.63;;;15.87;59.37
20656;BME280;10487;53.320;8.672;2022-10-16T11:17:28;101172.78;;;15.97;59.04
20656;BME280;10487;53.320;8.672;2022-10-16T11:20:34;101182.03;;;16.04;59.12
20656;BME280;10487;53.320;8.672;2022-10-16T11:23:58;101171.72;;;16.09;58.96
20656;BME280;10487;53.320;8.672;2022-10-16T11:27:06;101185.63;;;16.14;58.83
20656;BME280;10487;53.320;8.672;2022-10-16T11:30:19;101182.53;;;16.18;58.71
20656;BME280;10487;53.320;8.672;2022-10-16T11:33:44;101185.66;;;16.23;58.67
20656;BME280;10487;53.320;8.672;2022-10-16T11:36:57;101190.31;;;16.31;58.61
20656;BME280;10487;53.320;8.672;2022-10-16T11:43:25;101200.00;;;16.43;58.72
20656;BME280;10487;53.320;8.672;2022-10-16T11:46:30;101208.09;;;16.43;58.42
20656;BME280;10487;53.320;8.672;2022-10-16T11:49:36;101215.47;;;16.51;58.58
20656;BME280;10487;53.320;8.672;2022-10-16T11:55:45;101217.88;;;16.54;58.48
20656;BME280;10487;53.320;8.672;2022-10-16T11:59:02;101225.81;;;16.55;58.47
20656;BME280;10487;53.320;8.672;2022-10-16T12:08:16;101229.50;;;16.54;58.24
20656;BME280;10487;53.320;8.672;2022-10-16T12:17:52;101235.56;;;16.37;58.25
20656;BME280;10487;53.320;8.672;2022-10-16T12:20:58;101230.19;;;16.47;58.57
20656;BME280;10487;53.320;8.672;2022-10-16T12:24:05;101231.91;;;16.57;58.36
20656;BME280;10487;53.320;8.672;2022-10-16T12:27:32;101247.81;;;16.70;58.42
20656;BME280;10487;53.320;8.672;2022-10-16T12:30:35;101250.66;;;16.78;58.17
20656;BME280;10487;53.320;8.672;2022-10-16T12:33:56;101259.31;;;16.81;58.04
20656;BME280;10487;53.320;8.672;2022-10-16T12:37:31;101251.69;;;16.86;57.98
20656;BME280;10487;53.320;8.672;2022-10-16T12:40:32;101263.91;;;16.90;57.71
20656;BME280;10487;53.320;8.672;2022-10-16T12:46:40;101279.34;;;16.98;57.85
20656;BME280;10487;53.320;8.672;2022-10-16T12:49:49;101270.97;;;17.01;57.64
20656;BME280;10487;53.320;8.672;2022-10-16T12:52:51;101269.72;;;17.05;57.65
20656;BME280;10487;53.320;8.672;2022-10-16T13:09:02;101284.31;;;16.93;56.99
20656;BME280;10487;53.320;8.672;2022-10-16T13:12:46;101292.81;;;16.88;57.11
20656;BME280;10487;53.320;8.672;2022-10-16T13:22:51;101314.03;;;16.72;56.71
20656;BME280;10487;53.320;8.672;2022-10-16T13:29:33;101312.16;;;16.63;56.80
20656;BME280;10487;53.320;8.672;2022-10-16T13:32:35;101328.47;;;16.62;56.87
20656;BME280;10487;53.320;8.672;2022-10-16T13:35:47;101332.44;;;16.58;56.87
20656;BME280;10487;53.320;8.672;2022-10-16T13:42:24;101336.81;;;16.49;56.42
20656;BME280;10487;53.320;8.672;2022-10-16T13:45:28;101337.38;;;16.43;56.66
20656;BME280;10487;53.320;8.672;2022-10-16T13:48:31;101346.56;;;16.41;56.47
20656;BME280;10487;53.320;8.672;2022-10-16T13:51:33;101337.91;;;16.37;56.60
20656;BME280;10487;53.320;8.672;2022-10-16T13:54:35;101348.66;;;16.37;56.34
20656;BME280;10487;53.320;8.672;2022-10-16T13:57:36;101352.41;;;16.46;56.66
20656;BME280;10487;53.320;8.672;2022-10-16T14:00:38;101360.19;;;16.49;56.50
20656;BME280;10487;53.320;8.672;2022-10-16T14:03:41;101360.19;;;16.49;56.26
20656;BME280;10487;53.320;8.672;2022-10-16T14:06:45;101357.63;;;16.47;56.23
20656;BME280;10487;53.320;8.672;2022-10-16T14:09:49;101367.81;;;16.44;56.26
20656;BME280;10487;53.320;8.672;2022-10-16T14:13:05;101377.88;;;16.42;56.18
20656;BME280;10487;53.320;8.672;2022-10-16T14:16:10;101381.97;;;16.36;56.12
20656;BME280;10487;53.320;8.672;2022-10-16T14:19:18;101382.25;;;16.33;56.51
20656;BME280;10487;53.320;8.672;2022-10-16T14:25:35;101397.09;;;16.27;56.39
20656;BME280;10487;53.320;8.672;2022-10-16T14:28:37;101399.09;;;16.25;56.34
20656;BME280;10487;53.320;8.672;2022-10-16T14:31:41;101392.38;;;16.20;56.23
20656;BME280;10487;53.320;8.672;2022-10-16T14:34:53;101395.34;;;16.17;56.17
20656;BME280;10487;53.320;8.672;2022-10-16T14:37:56;101395.59;;;16.14;56.26
20656;BME280;10487;53.320;8.672;2022-10-16T14:40:59;101400.28;;;16.12;55.86
20656;BME280;10487;53.320;8.672;2022-10-16T14:44:03;101397.72;;;16.10;55.98
20656;BME280;10487;53.320;8.672;2022-10-16T14:47:12;101399.56;;;16.10;55.86
20656;BME280;10487;53.320;8.672;2022-10-16T14:50:14;101397.97;;;16.07;55.83
20656;BME280;10487;53.320;8.672;2022-10-16T14:53:16;101395.66;;;16.03;56.07
20656;BME280;10487;53.320;8.672;2022-10-16T14:56:23;101411.09;;;16.01;56.09
20656;BME280;10487;53.320;8.672;2022-10-16T15:02:33;101407.22;;;15.94;55.93
20656;BME280;10487;53.320;8.672;2022-10-16T15:05:35;101409.31;;;15.90;56.09
20656;BME280;10487;53.320;8.672;2022-10-16T15:08:37;101423.03;;;15.87;55.93
20656;BME280;10487;53.320;8.672;2022-10-16T15:11:39;101420.47;;;15.86;56.04
20656;BME280;10487;53.320;8.672;2022-10-16T15:14:41;101435.75;;;15.85;55.79
20656;BME280;10487;53.320;8.672;2022-10-16T15:17:43;101438.59;;;15.84;55.67
20656;BME280;10487;53.320;8.672;2022-10-16T15:20:44;101436.16;;;15.81;55.89
20656;BME280;10487;53.320;8.672;2022-10-16T15:23:46;101438.38;;;15.76;55.77
20656;BME280;10487;53.320;8.672;2022-10-16T15:26:48;101447.44;;;15.75;55.97
20656;BME280;10487;53.320;8.672;2022-10-16T15:29:50;101439.50;;;15.73;55.82
20656;BME280;10487;53.320;8.672;2022-10-16T15:32:52;101453.06;;;15.72;55.74
20656;BME280;10487;53.320;8.672;2022-10-16T15:35:54;101459.69;;;15.67;55.68
20656;BME280;10487;53.320;8.672;2022-10-16T15:38:56;101461.91;;;15.62;55.85
20656;BME280;10487;53.320;8.672;2022-10-16T15:41:58;101456.94;;;15.58;55.77
20656;BME280;10487;53.320;8.672;2022-10-16T15:44:59;101453.91;;;15.51;55.64
20656;BME280;10487;53.320;8.672;2022-10-16T15:48:02;101447.91;;;15.48;55.73
20656;BME280;10487;53.320;8.672;2022-10-16T15:51:05;101449.28;;;15.42;55.92
20656;BME280;10487;53.320;8.672;2022-10-16T15:54:08;101445.13;;;15.38;55.71
20656;BME280;10487;53.320;8.672;2022-10-16T15:57:09;101440.97;;;15.34;55.75
20656;BME280;10487;53.320;8.672;2022-10-16T16:00:17;101448.59;;;15.29;55.66
20656;BME280;10487;53.320;8.672;2022-10-16T16:03:19;101461.78;;;15.21;55.84
20656;BME280;10487;53.320;8.672;2022-10-16T16:06:22;101456.16;;;15.13;55.83
20656;BME280;10487;53.320;8.672;2022-10-16T16:09:25;101465.81;;;15.04;55.69
20656;BME280;10487;53.320;8.672;2022-10-16T16:12:26;101470.84;;;14.98;55.87
20656;BME280;10487;53.320;8.672;2022-10-16T16:15:29;101473.78;;;14.95;56.02
20656;BME280;10487;53.320;8.672;2022-10-16T16:18:30;101478.91;;;14.98;56.01
20656;BME280;10487;53.320;8.672;2022-10-16T16:21:33;101476.72;;;14.92;56.00
20656;BME280;10487;53.320;8.672;2022-10-16T16:24:34;101485.66;;;14.81;55.96
20656;BME280;10487;53.320;8.672;2022-10-16T16:27:36;101489.03;;;14.72;55.98
20656;BME280;10487;53.320;8.672;2022-10-16T16:30:40;101496.97;;;14.63;56.05
20656;BME280;10487;53.320;8.672;2022-10-16T16:33:42;101500.53;;;14.52;56.24
20656;BME280;10487;53.320;8.672;2022-10-16T16:36:44;101509.41;;;14.42;56.16
20656;BME280;10487;53.320;8.672;2022-10-16T16:39:45;101514.47;;;14.33;56.14
20656;BME280;10487;53.320;8.672;2022-10-16T16:42:48;101518.75;;;14.25;56.20
20656;BME280;10487;53.320;8.672;2022-10-16T16:45:50;101528.94;;;14.44;55.98
20656;BME280;10487;53.320;8.672;2022-10-16T16:48:51;101527.31;;;14.30;56.21
20656;BME280;10487;53.320;8.672;2022-10-16T16:52:09;101533.59;;;14.18;56.04
20656;BME280;10487;53.320;8.672;2022-10-16T16:55:10;101529.78;;;14.09;56.14
20656;BME280;10487;53.320;8.672;2022-10-16T16:58:12;101538.19;;;14.05;56.21
20656;BME280;10487;53.320;8.672;2022-10-16T17:01:14;101543.16;;;13.98;56.32
20656;BME280;10487;53.320;8.672;2022-10-16T17:04:20;101549.00;;;13.92;56.26
20656;BME280;10487;53.320;8.672;2022-10-16T17:07:22;101554.19;;;13.83;56.39
20656;BME280;10487;53.320;8.672;2022-10-16T17:10:24;101547.56;;;13.75;56.11
20656;BME280;10487;53.320;8.672;2022-10-16T17:13:31;101556.06;;;13.69;56.18
20656;BME280;10487;53.320;8.672;2022-10-16T17:16:37;101565.53;;;13.62;56.17
20656;BME280;10487;53.320;8.672;2022-10-16T17:19:39;101570.72;;;13.53;56.17
20656;BME280;10487;53.320;8.672;2022-10-16T17:22:40;101573.16;;;13.43;56.17
20656;BME280;10487;53.320;8.672;2022-10-16T17:25:42;101580.94;;;13.35;56.17
20656;BME280;10487;53.320;8.672;2022-10-16T17:28:44;101588.66;;;13.27;56.27
20656;BME280;10487;53.320;8.672;2022-10-16T17:31:46;101592.75;;;13.20;56.16
20656;BME280;10487;53.320;8.672;2022-10-16T17:34:50;101578.91;;;13.13;56.18
20656;BME280;10487;53.320;8.672;2022-10-16T17:37:52;101586.31;;;13.10;56.53
20656;BME280;10487;53.320;8.672;2022-10-16T17:40:53;101591.03;;;13.06;56.43
20656;BME280;10487;53.320;8.672;2022-10-16T17:43:55;101598.53;;;13.01;56.56
20656;BME280;10487;53.320;8.672;2022-10-16T17:46:56;101598.78;;;12.98;56.21
20656;BME280;10487;53.320;8.672;2022-10-16T17:49:58;101606.16;;;12.95;56.55
20656;BME280;10487;53.320;8.672;2022-10-16T17:53:00;101607.56;;;12.88;56.54
20656;BME280;10487;53.320;8.672;2022-10-16T17:56:04;101610.78;;;12.80;56.57
20656;BME280;10487;53.320;8.672;2022-10-16T17:59:05;101624.56;;;12.74;56.27